Ranger — VJN3507 — position and weather

sailwx.info

Track history (hours):
 
Tides and Currents Weather Stations Pressure Air Temp Water Temp Dewpoint Dewpoint Depression Visibility Wind Speed Wind Dir Waves Ship Positions

Ranger

Last reported at 2017-Aug-29 04:46 UTC. Time now 2017-Sep-22 08:28 UTC.
Position S 27°55' E 153°25'.
Warning: this ship's position is 24 days out of date.

Length 13 m.

Type: Sailing vessel. MMSI: 503454300.

Date/timePositionNaut miles runAvg speedWind from/ knotsBaromVisibWave heightAir tempDewpointWater temp
2017-Aug-29 04:46S 27°55' E 153°25'1 5.6
2017-Aug-29 04:30S 27°53' E 153°25'3 5.9
2017-Aug-29 04:00S 27°51' E 153°24'3 6.2
2017-Aug-29 03:30S 27°48' E 153°25'3 5.2
2017-Aug-29 03:00S 27°45' E 153°26'0 0.0
2017-Aug-28 05:43S 27°45' E 153°26'0 0.0
2017-Aug-26 03:57S 27°45' E 153°26'2 4.8
2017-Aug-26 03:30S 27°47' E 153°25'3 5.4
2017-Aug-26 03:00S 27°46' E 153°22'3 5.6
2017-Aug-26 02:30S 27°43' E 153°21'3 6.1
2017-Aug-26 02:00S 27°40' E 153°22'  
2017-Aug-19 23:45S 27°13' E 153°13'2 6.7
2017-Aug-19 23:30S 27°12' E 153°11'3 5.9
2017-Aug-19 23:00S 27°11' E 153°08'3 5.4
2017-Aug-19 22:30S 27°11' E 153°05'1 1.6
2017-Aug-19 22:00S 27°11' E 153°04'  
Track history (hours):
 
Tides and Currents Weather Stations Pressure Air Temp Water Temp Dewpoint Dewpoint Depression Visibility Wind Speed Wind Dir Waves Ship Positions

Ranger

Last reported at 2017-Aug-29 04:46 UTC. Time now 2017-Sep-22 08:28 UTC.
Position S 27°55' E 153°25'.
Warning: this ship's position is 24 days out of date.

Length 13 m.

Type: Sailing vessel. MMSI: 503454300.

Date/timePositionNaut miles runAvg speedWind from/ knotsBaromVisibWave heightAir tempDewpointWater temp
2017-Aug-29 04:46S 27°55' E 153°25'1 5.6
2017-Aug-29 04:30S 27°53' E 153°25'3 5.9
2017-Aug-29 04:00S 27°51' E 153°24'3 6.2
2017-Aug-29 03:30S 27°48' E 153°25'3 5.2
2017-Aug-29 03:00S 27°45' E 153°26'0 0.0
2017-Aug-28 05:43S 27°45' E 153°26'0 0.0
2017-Aug-26 03:57S 27°45' E 153°26'2 4.8
2017-Aug-26 03:30S 27°47' E 153°25'3 5.4
2017-Aug-26 03:00S 27°46' E 153°22'3 5.6
2017-Aug-26 02:30S 27°43' E 153°21'3 6.1
2017-Aug-26 02:00S 27°40' E 153°22'  
2017-Aug-19 23:45S 27°13' E 153°13'2 6.7
2017-Aug-19 23:30S 27°12' E 153°11'3 5.9
2017-Aug-19 23:00S 27°11' E 153°08'3 5.4
2017-Aug-19 22:30S 27°11' E 153°05'1 1.6
2017-Aug-19 22:00S 27°11' E 153°04'  

Dump ship's entire track history